Time;durP1;ratioP1;P1;durP2;ratioP2;P2;SDS_P1;SDS_P2;PMS_P1;PMS_P2;Temp;Humidity;BMP_temperature;BMP_pressure;BME280_temperature;BME280_humidity;BME280_pressure;Samples;Min_cycle;Max_cycle;Signal;HPM_P1;HPM_P2
2022/07/09 00:02:22;;;;;;;;;;;;;;;16.89;100.00;102893.91;4996102;28;19953;-59
2022/07/09 00:04:47;;;;;;;;;;;;;;;16.87;100.00;102887.75;4995010;28;19914;-59
2022/07/09 00:07:12;;;;;;;;;;;;;;;16.87;100.00;102893.13;4996268;28;19914;-59
2022/07/09 00:09:38;;;;;;;;;;;;;;;16.84;100.00;102891.44;5010992;28;20414;-59
2022/07/09 00:12:03;;;;;;;;;;;;;;;16.83;100.00;102891.50;5011444;28;19909;-59
2022/07/09 00:14:29;;;;;;;;;;;;;;;16.80;100.00;102886.25;4995807;28;19913;-59
2022/07/09 00:16:54;;;;;;;;;;;;;;;16.79;100.00;102879.16;5010795;28;19914;-59
2022/07/09 00:19:20;;;;;;;;;;;;;;;16.77;100.00;102876.53;4995756;28;20012;-59
2022/07/09 00:21:45;;;;;;;;;;;;;;;16.76;100.00;102879.28;5010820;28;20008;-59
2022/07/09 00:24:11;;;;;;;;;;;;;;;16.74;100.00;102874.00;4995897;28;19910;-59
2022/07/09 00:26:36;;;;;;;;;;;;;;;16.73;100.00;102877.59;4994490;28;19913;-60
2022/07/09 00:29:01;;;;;;;;;;;;;;;16.70;100.00;102878.59;4995588;28;20408;-60
2022/07/09 00:31:26;;;;;;;;;;;;;;;16.71;100.00;102887.47;4995630;28;19921;-58
2022/07/09 00:33:52;;;;;;;;;;;;;;;16.68;100.00;102877.75;4995556;28;19910;-60
2022/07/09 00:36:18;;;;;;;;;;;;;;;16.68;100.00;102874.22;5010622;28;19968;-59
2022/07/09 00:38:43;;;;;;;;;;;;;;;16.68;100.00;102869.72;4995401;28;19921;-59
2022/07/09 00:41:08;;;;;;;;;;;;;;;16.69;100.00;102871.47;4995598;28;19921;-60
2022/07/09 00:43:33;;;;;;;;;;;;;;;16.67;100.00;102878.69;4995376;28;19914;-58
2022/07/09 00:45:58;;;;;;;;;;;;;;;16.59;100.00;102874.59;4994405;28;19921;-59
2022/07/09 00:48:24;;;;;;;;;;;;;;;16.50;100.00;102876.66;4995260;28;20288;-59
2022/07/09 00:50:49;;;;;;;;;;;;;;;16.46;100.00;102868.78;4995201;28;20281;-58
2022/07/09 00:53:17;;;;;;;;;;;;;;;16.44;100.00;102870.66;4994187;28;19921;-59
2022/07/09 00:55:44;;;;;;;;;;;;;;;16.41;100.00;102865.41;4994107;28;19914;-59
2022/07/09 00:58:10;;;;;;;;;;;;;;;16.42;100.00;102862.72;4995287;28;20377;-58
2022/07/09 01:00:35;;;;;;;;;;;;;;;16.46;100.00;102859.00;4995054;28;19922;-59
2022/07/09 01:03:01;;;;;;;;;;;;;;;16.48;100.00;102862.50;4995081;28;19914;-59
2022/07/09 01:05:26;;;;;;;;;;;;;;;16.49;100.00;102863.34;4994922;28;19913;-59
2022/07/09 01:07:52;;;;;;;;;;;;;;;16.51;100.00;102858.81;4994783;28;19909;-60
2022/07/09 01:10:17;;;;;;;;;;;;;;;16.53;100.00;102855.16;4994892;28;19917;-59
2022/07/09 01:12:44;;;;;;;;;;;;;;;16.52;100.00;102856.09;4993747;28;19913;-60
2022/07/09 01:15:09;;;;;;;;;;;;;;;16.53;100.00;102854.28;4994663;28;20081;-60
2022/07/09 01:17:38;;;;;;;;;;;;;;;16.51;100.00;102856.16;4994846;28;20020;-59
2022/07/09 01:20:04;;;;;;;;;;;;;;;16.48;100.00;102851.78;4994652;28;19914;-59
2022/07/09 01:22:29;;;;;;;;;;;;;;;16.46;100.00;102847.41;4994415;28;20369;-59
2022/07/09 01:24:55;;;;;;;;;;;;;;;16.45;100.00;102849.22;4994688;28;20008;-59
2022/07/09 01:27:20;;;;;;;;;;;;;;;16.44;100.00;102849.28;4994546;28;19910;-59
2022/07/09 01:29:49;;;;;;;;;;;;;;;16.49;100.00;102853.50;4994622;28;19921;-58
2022/07/09 01:32:15;;;;;;;;;;;;;;;16.58;100.00;102846.94;4994677;28;19936;-59
2022/07/09 01:34:40;;;;;;;;;;;;;;;16.66;100.00;102836.84;4994192;28;20373;-58
2022/07/09 01:37:06;;;;;;;;;;;;;;;16.74;100.00;102839.22;4994711;28;20317;-59
2022/07/09 01:39:31;;;;;;;;;;;;;;;16.80;100.00;102835.41;4994174;28;20005;-60
2022/07/09 01:41:56;;;;;;;;;;;;;;;16.84;100.00;102829.88;4994206;28;19909;-58
2022/07/09 01:44:21;;;;;;;;;;;;;;;16.82;100.00;102825.53;4994457;28;19914;-58
2022/07/09 01:46:47;;;;;;;;;;;;;;;16.78;100.00;102827.44;4994293;28;19964;-59
2022/07/09 01:49:12;;;;;;;;;;;;;;;16.71;100.00;102825.94;4994268;28;20012;-60
2022/07/09 01:51:37;;;;;;;;;;;;;;;16.66;100.00;102823.47;4994111;28;20178;-60
2022/07/09 01:54:02;;;;;;;;;;;;;;;16.63;100.00;102828.91;4994380;28;20012;-59
2022/07/09 01:56:28;;;;;;;;;;;;;;;16.58;100.00;102822.00;4992865;28;20381;-60
2022/07/09 01:58:53;;;;;;;;;;;;;;;16.50;100.00;102822.31;4992811;28;19918;-59
2022/07/09 02:01:18;;;;;;;;;;;;;;;16.44;100.00;102823.41;4993292;28;19959;-60
2022/07/09 02:03:43;;;;;;;;;;;;;;;16.38;100.00;102816.50;4993846;28;19949;-58
2022/07/09 02:06:08;;;;;;;;;;;;;;;16.32;100.00;102823.88;4993985;28;19925;-60
2022/07/09 02:08:34;;;;;;;;;;;;;;;16.22;100.00;102818.00;4992406;28;20040;-59
2022/07/09 02:10:59;;;;;;;;;;;;;;;16.13;100.00;102816.53;4993676;28;19913;-59
2022/07/09 02:13:24;;;;;;;;;;;;;;;16.06;100.00;102817.66;4993078;28;19914;-59
2022/07/09 02:15:49;;;;;;;;;;;;;;;15.99;100.00;102826.84;4993532;28;20028;-58
2022/07/09 02:18:15;;;;;;;;;;;;;;;15.93;100.00;102821.72;4992327;28;19999;-59
2022/07/09 02:20:40;;;;;;;;;;;;;;;15.87;100.00;102812.16;4993531;28;19925;-60
2022/07/09 02:23:05;;;;;;;;;;;;;;;15.84;100.00;102821.16;4993518;28;20007;-60
2022/07/09 02:25:30;;;;;;;;;;;;;;;15.84;100.00;102815.81;4993252;28;20365;-60
2022/07/09 02:27:56;;;;;;;;;;;;;;;15.86;100.00;102813.94;4993544;28;20277;-58
2022/07/09 02:30:21;;;;;;;;;;;;;;;15.97;100.00;102812.66;4992117;28;19941;-59
2022/07/09 02:32:46;;;;;;;;;;;;;;;16.07;100.00;102819.41;4993370;28;19964;-59
2022/07/09 02:35:11;;;;;;;;;;;;;;;16.17;100.00;102811.94;4993364;28;19909;-59
2022/07/09 02:37:37;;;;;;;;;;;;;;;16.26;100.00;102814.28;4975816;28;19914;-58
2022/07/09 02:40:02;;;;;;;;;;;;;;;16.34;100.00;102809.53;4975811;28;20016;-61
2022/07/09 02:42:27;;;;;;;;;;;;;;;16.38;100.00;102804.91;5008168;28;19996;-58
2022/07/09 02:44:52;;;;;;;;;;;;;;;16.38;100.00;102795.09;4993064;28;20369;-58
2022/07/09 02:47:18;;;;;;;;;;;;;;;16.37;100.00;102800.50;4993301;28;19945;-59
2022/07/09 02:49:43;;;;;;;;;;;;;;;16.38;100.00;102804.91;4993129;28;20264;-59
2022/07/09 02:52:08;;;;;;;;;;;;;;;16.44;100.00;102796.66;4991883;28;19914;-59
2022/07/09 02:54:34;;;;;;;;;;;;;;;16.54;100.00;102805.22;4991785;28;19997;-59
2022/07/09 02:56:59;;;;;;;;;;;;;;;16.62;100.00;102800.41;4993177;28;20277;-59
2022/07/09 02:59:25;;;;;;;;;;;;;;;16.69;100.00;102793.91;4992971;28;20597;-60
2022/07/09 03:01:51;;;;;;;;;;;;;;;16.73;100.00;102793.75;4992942;28;19960;-59
2022/07/09 03:04:16;;;;;;;;;;;;;;;16.77;100.00;102798.94;4992999;28;19917;-59
2022/07/09 03:06:41;;;;;;;;;;;;;;;16.79;100.00;102786.41;4992724;28;20567;-60
2022/07/09 03:09:06;;;;;;;;;;;;;;;16.82;100.00;102788.06;4992656;28;19918;-59
2022/07/09 03:11:32;;;;;;;;;;;;;;;16.87;100.00;102780.72;4991328;28;20415;-59
2022/07/09 03:13:57;;;;;;;;;;;;;;;16.91;100.00;102781.50;4992742;28;20341;-59
2022/07/09 03:16:22;;;;;;;;;;;;;;;16.91;100.00;102776.16;4992654;28;20420;-59
2022/07/09 03:18:47;;;;;;;;;;;;;;;16.88;100.00;102771.78;4975015;28;20414;-59
2022/07/09 03:21:12;;;;;;;;;;;;;;;16.90;100.00;102775.25;4991371;28;19917;-59
2022/07/09 03:23:39;;;;;;;;;;;;;;;16.93;100.00;102774.28;4992448;28;19917;-59
2022/07/09 03:26:05;;;;;;;;;;;;;;;16.96;100.00;102760.78;4992636;28;20004;-59
2022/07/09 03:28:30;;;;;;;;;;;;;;;16.98;100.00;102759.78;4992441;28;19997;-59
2022/07/09 03:30:56;;;;;;;;;;;;;;;16.97;100.00;102766.06;4992417;28;19940;-58
2022/07/09 03:33:21;;;;;;;;;;;;;;;16.98;100.00;102764.25;4992674;28;19910;-59
2022/07/09 03:35:46;;;;;;;;;;;;;;;16.98;100.00;102766.94;4992374;28;19912;-59
2022/07/09 03:38:12;;;;;;;;;;;;;;;16.98;100.00;102772.28;4991329;28;19929;-60
2022/07/09 03:40:37;;;;;;;;;;;;;;;16.94;100.00;102774.22;4992607;28;19918;-59
2022/07/09 03:43:02;;;;;;;;;;;;;;;16.88;100.00;102764.59;4992298;28;19914;-60
2022/07/09 03:45:27;;;;;;;;;;;;;;;16.92;100.00;102764.50;4992568;28;20450;-59
2022/07/09 03:47:53;;;;;;;;;;;;;;;16.94;100.00;102766.19;4992524;28;19936;-58
2022/07/09 03:50:18;;;;;;;;;;;;;;;17.00;100.00;102770.44;4991333;28;19968;-58
2022/07/09 03:52:43;;;;;;;;;;;;;;;17.04;100.00;102769.34;4991189;28;19913;-59
2022/07/09 03:55:09;;;;;;;;;;;;;;;17.07;100.00;102771.88;4992428;28;20376;-59
2022/07/09 03:57:34;;;;;;;;;;;;;;;17.10;100.00;102771.78;4992278;28;19913;-59
2022/07/09 03:59:59;;;;;;;;;;;;;;;17.09;100.00;102770.03;4992295;28;20273;-60
2022/07/09 04:02:24;;;;;;;;;;;;;;;17.12;100.00;102767.25;4992493;28;19956;-58
2022/07/09 04:04:50;;;;;;;;;;;;;;;17.16;100.00;102767.97;4992233;28;19945;-58
2022/07/09 04:07:15;;;;;;;;;;;;;;;17.19;100.00;102770.53;4991066;28;19925;-59
2022/07/09 04:09:40;;;;;;;;;;;;;;;17.22;100.00;102769.53;4991962;28;19957;-59
2022/07/09 04:12:06;;;;;;;;;;;;;;;17.23;100.00;102774.81;4992273;28;20381;-59
2022/07/09 04:14:31;;;;;;;;;;;;;;;17.20;100.00;102767.78;4992053;28;19920;-60
2022/07/09 04:16:56;;;;;;;;;;;;;;;17.20;100.00;102775.81;4991878;28;19936;-59
2022/07/09 04:19:21;;;;;;;;;;;;;;;17.22;100.00;102772.22;4992214;28;19922;-60
2022/07/09 04:21:47;;;;;;;;;;;;;;;17.27;100.00;102775.56;4991060;28;20005;-59
2022/07/09 04:24:12;;;;;;;;;;;;;;;17.29;100.00;102768.31;4992063;28;20376;-59
2022/07/09 04:26:37;;;;;;;;;;;;;;;17.31;100.00;102772.66;4992077;28;20349;-60
2022/07/09 04:29:02;;;;;;;;;;;;;;;17.31;100.00;102769.13;4991875;28;20008;-60
2022/07/09 04:31:28;;;;;;;;;;;;;;;17.28;100.00;102771.97;4991899;28;19984;-58
2022/07/09 04:33:53;;;;;;;;;;;;;;;17.24;100.00;102776.56;4990867;28;20349;-60
2022/07/09 04:36:18;;;;;;;;;;;;;;;17.23;100.00;102769.47;4994119;28;19914;-59
2022/07/09 04:38:43;;;;;;;;;;;;;;;17.27;100.00;102768.38;4995495;28;19956;-59
2022/07/09 04:41:08;;;;;;;;;;;;;;;17.31;100.00;102766.47;4995512;28;19914;-59
2022/07/09 04:43:34;;;;;;;;;;;;;;;17.34;100.00;102764.53;4995294;28;19914;-59
2022/07/09 04:45:59;;;;;;;;;;;;;;;17.39;100.00;102780.38;4995418;28;19914;-59
2022/07/09 04:48:25;;;;;;;;;;;;;;;17.41;100.00;102772.28;4995487;28;20285;-59
2022/07/09 04:50:50;;;;;;;;;;;;;;;17.46;100.00;102765.78;4995225;28;19921;-59
2022/07/09 04:53:15;;;;;;;;;;;;;;;17.56;100.00;102754.66;4995327;28;19918;-60
2022/07/09 04:55:40;;;;;;;;;;;;;;;17.66;100.00;102754.22;4995177;28;19913;-59
2022/07/09 04:58:05;;;;;;;;;;;;;;;17.75;100.00;102746.69;4995240;28;19936;-60
2022/07/09 05:00:33;;;;;;;;;;;;;;;17.83;100.00;102749.91;4995262;28;19933;-58
2022/07/09 05:02:58;;;;;;;;;;;;;;;17.90;100.00;102751.34;4995384;28;19917;-60
2022/07/09 05:05:25;;;;;;;;;;;;;;;17.98;100.00;102746.56;4995305;28;19910;-60
2022/07/09 05:07:50;;;;;;;;;;;;;;;18.10;100.00;102747.81;4993864;28;19918;-58
2022/07/09 05:10:16;;;;;;;;;;;;;;;18.22;100.00;102740.97;4994885;28;19945;-58
2022/07/09 05:12:42;;;;;;;;;;;;;;;18.29;100.00;102738.91;4994885;28;19909;-58
2022/07/09 05:15:08;;;;;;;;;;;;;;;18.38;100.00;102742.97;4995026;28;19914;-60
2022/07/09 05:17:34;;;;;;;;;;;;;;;18.40;100.00;102738.38;4994636;28;19917;-60
2022/07/09 05:19:59;;;;;;;;;;;;;;;18.37;100.00;102735.84;4994568;28;19968;-57
2022/07/09 05:22:25;;;;;;;;;;;;;;;18.37;100.00;102744.75;4994945;28;19910;-60
2022/07/09 05:24:50;;;;;;;;;;;;;;;18.41;100.00;102732.94;4993380;28;20277;-60
2022/07/09 05:27:15;;;;;;;;;;;;;;;18.48;100.00;102737.06;5009721;28;19914;-63
2022/07/09 05:29:40;;;;;;;;;;;;;;;18.63;100.00;102734.59;4994266;28;19914;-60
2022/07/09 05:32:06;;;;;;;;;;;;;;;18.68;100.00;102748.63;4994498;28;20365;-60
2022/07/09 05:34:31;;;;;;;;;;;;;;;18.72;100.00;102733.25;4994606;28;19910;-60
2022/07/09 05:36:56;;;;;;;;;;;;;;;18.82;100.00;102740.81;4994409;28;20407;-58
2022/07/09 05:39:22;;;;;;;;;;;;;;;18.86;100.00;102743.31;4994400;28;20269;-59
2022/07/09 05:41:47;;;;;;;;;;;;;;;18.90;100.00;102745.81;4994153;28;19945;-60
2022/07/09 05:44:12;;;;;;;;;;;;;;;18.74;100.00;102745.66;4994406;28;19984;-59
2022/07/09 05:46:38;;;;;;;;;;;;;;;18.68;100.00;102754.00;4993258;28;20319;-59
2022/07/09 05:49:03;;;;;;;;;;;;;;;18.70;100.00;102757.50;4993969;28;19914;-58
2022/07/09 05:51:28;;;;;;;;;;;;;;;18.70;100.00;102756.66;5009414;28;19914;-60
2022/07/09 05:53:54;;;;;;;;;;;;;;;18.72;100.00;102762.78;4994051;28;19909;-59
2022/07/09 05:56:19;;;;;;;;;;;;;;;18.72;100.00;102758.31;5009252;28;20208;-59
2022/07/09 05:58:44;;;;;;;;;;;;;;;18.87;100.00;102745.94;4993977;28;19913;-60
2022/07/09 06:01:09;;;;;;;;;;;;;;;19.10;100.00;102754.69;4992488;28;19960;-60
2022/07/09 06:03:35;;;;;;;;;;;;;;;19.14;100.00;102753.56;4994003;28;19957;-61
2022/07/09 06:06:00;;;;;;;;;;;;;;;19.21;100.00;102755.00;4976835;28;19914;-59
2022/07/09 06:08:26;;;;;;;;;;;;;;;19.17;100.00;102756.13;4992936;28;20005;-58
2022/07/09 06:10:51;;;;;;;;;;;;;;;19.03;100.00;102761.28;4992338;28;19917;-59
2022/07/09 06:13:17;;;;;;;;;;;;;;;18.99;100.00;102760.59;4992688;28;19956;-59
2022/07/09 06:15:43;;;;;;;;;;;;;;;18.88;100.00;102755.72;4993698;28;20295;-58
2022/07/09 06:18:08;;;;;;;;;;;;;;;18.94;100.00;102758.13;4992466;28;19913;-60
2022/07/09 06:20:33;;;;;;;;;;;;;;;19.08;100.00;102753.88;4993670;28;19913;-59
2022/07/09 06:22:59;;;;;;;;;;;;;;;19.12;100.00;102761.72;4993903;28;19932;-60
2022/07/09 06:25:24;;;;;;;;;;;;;;;19.06;100.00;102758.47;4993392;28;20001;-60
2022/07/09 06:27:49;;;;;;;;;;;;;;;19.12;100.00;102761.72;4993361;28;19909;-60
2022/07/09 06:30:15;;;;;;;;;;;;;;;19.23;100.00;102765.66;4993376;28;20292;-59
2022/07/09 06:32:40;;;;;;;;;;;;;;;19.23;100.00;102766.53;4992118;28;20008;-59
2022/07/09 06:35:05;;;;;;;;;;;;;;;19.18;100.00;102759.66;4993655;28;19918;-59
2022/07/09 06:37:31;;;;;;;;;;;;;;;19.11;100.00;102770.72;4993247;28;19914;-59
2022/07/09 06:39:57;;;;;;;;;;;;;;;19.03;100.00;102770.25;4993323;28;20052;-59
2022/07/09 06:42:23;;;;;;;;;;;;;;;18.94;100.00;102773.34;4992114;28;19913;-60
2022/07/09 06:44:48;;;;;;;;;;;;;;;18.97;100.00;102771.41;4992975;28;20321;-58
2022/07/09 06:47:13;;;;;;;;;;;;;;;18.98;100.00;102772.28;4993237;28;19921;-59
2022/07/09 06:49:39;;;;;;;;;;;;;;;19.06;100.00;102782.63;4993037;28;19916;-60
2022/07/09 06:52:04;;;;;;;;;;;;;;;19.15;100.00;102782.16;4992909;28;19914;-60
2022/07/09 06:54:30;;;;;;;;;;;;;;;19.13;100.00;102779.56;4993243;28;19913;-59
2022/07/09 06:56:56;;;;;;;;;;;;;;;19.38;100.00;102774.75;4991854;28;19913;-58
2022/07/09 06:59:22;;;;;;;;;;;;;;;19.67;100.00;102786.69;4992370;28;19921;-59
2022/07/09 07:01:47;;;;;;;;;;;;;;;19.64;100.00;102790.41;4992806;28;19932;-60
2022/07/09 07:04:14;;;;;;;;;;;;;;;19.70;100.00;102786.50;4992834;28;19949;-60
2022/07/09 07:06:39;;;;;;;;;;;;;;;19.72;100.00;102781.94;4992736;28;19910;-59
2022/07/09 07:09:05;;;;;;;;;;;;;;;19.78;100.00;102783.41;4992826;28;20396;-60
2022/07/09 07:11:31;;;;;;;;;;;;;;;19.97;100.00;102797.66;4992899;28;20266;-60
2022/07/09 07:13:56;;;;;;;;;;;;;;;20.23;99.13;102792.69;4992838;28;19969;-60
2022/07/09 07:16:21;;;;;;;;;;;;;;;20.35;99.37;102788.44;4992757;28;19910;-61
2022/07/09 07:18:46;;;;;;;;;;;;;;;20.32;100.00;102793.13;4992568;28;19902;-58
2022/07/09 07:21:11;;;;;;;;;;;;;;;20.12;99.92;102811.22;4992680;28;19914;-60
2022/07/09 07:23:37;;;;;;;;;;;;;;;20.09;100.00;102811.38;4991458;28;19910;-59
2022/07/09 07:26:02;;;;;;;;;;;;;;;20.04;99.79;102814.34;4992469;28;19913;-60
2022/07/09 07:28:27;;;;;;;;;;;;;;;20.14;99.93;102804.81;4992810;28;19914;-60
2022/07/09 07:30:52;;;;;;;;;;;;;;;20.39;98.98;102797.22;4992365;28;19964;-58
2022/07/09 07:33:18;;;;;;;;;;;;;;;20.30;98.37;102801.28;4992510;28;20424;-59
2022/07/09 07:35:43;;;;;;;;;;;;;;;20.21;99.28;102817.94;4991300;28;20313;-60
2022/07/09 07:38:08;;;;;;;;;;;;;;;20.01;100.00;102813.63;4992532;28;19917;-60
2022/07/09 07:40:34;;;;;;;;;;;;;;;19.75;100.00;102807.78;4992232;28;20284;-59
2022/07/09 07:42:59;;;;;;;;;;;;;;;19.51;100.00;102815.31;4992436;28;20005;-59
2022/07/09 07:45:24;;;;;;;;;;;;;;;19.46;100.00;102812.84;4991135;28;19957;-60
2022/07/09 07:47:49;;;;;;;;;;;;;;;19.54;100.00;102807.06;4992171;28;20725;-60
2022/07/09 07:50:15;;;;;;;;;;;;;;;19.72;100.00;102813.31;4992389;28;19913;-60
2022/07/09 07:52:40;;;;;;;;;;;;;;;19.79;100.00;102818.28;4992350;28;19913;-60
2022/07/09 07:55:05;;;;;;;;;;;;;;;19.79;100.00;102810.22;4992145;28;20430;-59
2022/07/09 07:57:31;;;;;;;;;;;;;;;19.74;99.13;102814.09;4992347;28;19960;-59
2022/07/09 07:59:57;;;;;;;;;;;;;;;19.81;99.45;102815.53;4991053;28;19925;-59
2022/07/09 08:02:22;;;;;;;;;;;;;;;19.89;98.44;102820.53;4992152;28;19913;-60
2022/07/09 08:04:47;;;;;;;;;;;;;;;19.80;96.75;102809.25;4992263;28;19910;-59
2022/07/09 08:07:13;;;;;;;;;;;;;;;19.81;98.14;102815.53;4992217;28;19921;-59
2022/07/09 08:09:38;;;;;;;;;;;;;;;20.01;95.85;102811.78;5007149;28;19922;-59
2022/07/09 08:12:03;;;;;;;;;;;;;;;20.00;97.07;102812.78;4994707;28;19913;-59
2022/07/09 08:14:29;;;;;;;;;;;;;;;20.26;95.18;102807.78;4996061;28;19941;-59
2022/07/09 08:16:54;;;;;;;;;;;;;;;20.30;94.14;102809.34;4995906;28;19920;-59
2022/07/09 08:19:19;;;;;;;;;;;;;;;20.28;94.79;102811.25;4995839;28;20060;-59
2022/07/09 08:21:44;;;;;;;;;;;;;;;20.30;94.76;102807.53;4995523;28;19914;-59
2022/07/09 08:24:09;;;;;;;;;;;;;;;20.39;94.29;102814.22;4995743;28;19913;-60
2022/07/09 08:26:35;;;;;;;;;;;;;;;20.70;92.42;102809.84;4995846;28;19914;-60
2022/07/09 08:29:00;;;;;;;;;;;;;;;20.93;92.65;102803.16;4995780;28;20285;-61
2022/07/09 08:31:25;;;;;;;;;;;;;;;21.40;88.58;102809.38;4995610;28;19921;-59
2022/07/09 08:33:51;;;;;;;;;;;;;;;21.43;86.25;102811.03;4995521;28;19932;-59
2022/07/09 08:36:16;;;;;;;;;;;;;;;21.41;88.16;102815.66;4994681;28;19958;-59
2022/07/09 08:38:41;;;;;;;;;;;;;;;21.56;87.41;102812.06;4995300;28;20334;-60
2022/07/09 08:41:07;;;;;;;;;;;;;;;21.88;86.24;102811.94;4994209;28;19913;-60
2022/07/09 08:43:34;;;;;;;;;;;;;;;22.27;83.07;102812.22;5010471;28;19917;-59
2022/07/09 08:45:59;;;;;;;;;;;;;;;22.04;82.82;102803.75;4994239;28;20029;-59
2022/07/09 08:48:24;;;;;;;;;;;;;;;21.76;83.98;102802.78;4995338;28;20000;-59
2022/07/09 08:50:50;;;;;;;;;;;;;;;21.94;84.36;102805.28;4994010;28;20124;-60
2022/07/09 08:53:19;;;;;;;;;;;;;;;22.22;82.68;102807.09;4995454;28;20262;-59
2022/07/09 08:55:45;;;;;;;;;;;;;;;22.75;78.18;102812.75;4995217;28;20357;-60
2022/07/09 08:58:11;;;;;;;;;;;;;;;22.93;78.12;102804.41;4994967;28;20004;-59
2022/07/09 09:00:37;;;;;;;;;;;;;;;23.14;74.61;102796.69;4994992;28;19922;-60
2022/07/09 09:03:02;;;;;;;;;;;;;;;23.21;73.85;102807.97;4995086;28;19909;-60
2022/07/09 09:05:27;;;;;;;;;;;;;;;22.70;78.84;102792.44;4995318;28;19914;-60
2022/07/09 09:07:52;;;;;;;;;;;;;;;22.68;77.03;102802.47;4995010;28;20415;-60
2022/07/09 09:10:22;;;;;;;;;;;;;;;22.44;78.93;102804.91;4994854;28;19926;-59
2022/07/09 09:12:47;;;;;;;;;;;;;;;22.57;78.13;102795.94;4994741;28;19917;-59
2022/07/09 09:15:16;;;;;;;;;;;;;;;22.63;77.93;102793.78;4993582;28;19917;-60
2022/07/09 09:17:45;;;;;;;;;;;;;;;22.82;78.11;102779.94;5009805;28;19916;-59
2022/07/09 09:20:14;;;;;;;;;;;;;;;23.83;76.03;102790.22;4994913;28;20389;-59
2022/07/09 09:22:47;;;;;;;;;;;;;;;24.30;68.12;102798.66;4994693;28;19913;-60
2022/07/09 09:25:18;;;;;;;;;;;;;;;24.76;63.97;102798.00;4993571;28;19910;-59
2022/07/09 09:27:51;;;;;;;;;;;;;;;24.67;59.71;102796.00;4994586;28;20412;-59
2022/07/09 09:30:16;;;;;;;;;;;;;;;24.77;56.51;102798.84;4994859;28;19940;-60
2022/07/09 09:32:41;;;;;;;;;;;;;;;24.32;56.03;102816.53;4993243;28;19930;-59
2022/07/09 09:35:07;;;;;;;;;;;;;;;23.79;55.84;102816.63;4993489;28;19964;-60
2022/07/09 09:37:32;;;;;;;;;;;;;;;23.94;58.70;102824.66;4994433;28;19914;-60
2022/07/09 09:39:58;;;;;;;;;;;;;;;24.11;59.90;102818.91;4994284;28;20300;-59
2022/07/09 09:42:24;;;;;;;;;;;;;;;24.10;56.17;102816.34;4994423;28;19967;-59
2022/07/09 09:44:50;;;;;;;;;;;;;;;24.02;57.86;102809.63;4994106;28;19910;-61
2022/07/09 09:47:18;;;;;;;;;;;;;;;23.93;57.37;102815.69;4994653;28;19971;-60
2022/07/09 09:49:45;;;;;;;;;;;;;;;24.47;54.42;102810.97;4994110;28;19995;-60
2022/07/09 09:52:10;;;;;;;;;;;;;;;24.52;53.83;102817.75;5009053;28;19914;-60
2022/07/09 09:54:37;;;;;;;;;;;;;;;24.13;52.20;102818.81;4994113;28;19910;-60
2022/07/09 09:57:06;;;;;;;;;;;;;;;24.38;52.10;102815.19;4992637;28;19909;-60
2022/07/09 09:59:34;;;;;;;;;;;;;;;24.61;49.68;102820.78;4994034;28;19917;-60
2022/07/09 10:02:00;;;;;;;;;;;;;;;24.83;51.61;102811.94;4994006;28;19917;-60
2022/07/09 10:04:25;;;;;;;;;;;;;;;24.67;49.25;102823.06;4993957;28;20365;-60
2022/07/09 10:06:50;;;;;;;;;;;;;;;24.44;48.66;102816.59;4993816;28;19937;-61
2022/07/09 10:09:16;;;;;;;;;;;;;;;24.42;49.52;102815.84;4993657;28;19930;-60
2022/07/09 10:11:45;;;;;;;;;;;;;;;24.93;46.44;102818.41;4993549;28;19925;-59
2022/07/09 10:14:23;;;;;;;;;;;;;;;24.57;48.38;102822.84;4992740;28;20285;-59
2022/07/09 10:16:48;;;;;;;;;;;;;;;24.59;48.03;102823.63;4993628;28;19910;-60
2022/07/09 10:19:26;;;;;;;;;;;;;;;24.30;49.25;102836.56;4993778;28;19920;-60
2022/07/09 10:21:53;;;;;;;;;;;;;;;24.11;50.53;102843.28;4993583;28;19913;-60
2022/07/09 10:24:24;;;;;;;;;;;;;;;23.92;49.85;102845.56;4993729;28;19910;-60
2022/07/09 10:26:49;;;;;;;;;;;;;;;23.72;52.41;102837.84;4993671;28;19909;-58
2022/07/09 10:29:21;;;;;;;;;;;;;;;23.61;53.54;102836.81;4993631;28;19916;-61
2022/07/09 10:31:47;;;;;;;;;;;;;;;23.62;53.73;102849.38;4993428;28;19910;-60
2022/07/09 10:34:21;;;;;;;;;;;;;;;23.02;57.65;102844.31;4992918;28;19916;-60
2022/07/09 10:37:02;;;;;;;;;;;;;;;23.59;57.98;102827.97;4993255;28;19910;-60
2022/07/09 10:39:29;;;;;;;;;;;;;;;24.67;55.39;102831.22;4993431;28;19933;-60
2022/07/09 10:42:04;;;;;;;;;;;;;;;24.40;57.37;102842.16;4993178;28;20419;-60
2022/07/09 10:44:37;;;;;;;;;;;;;;;24.26;57.15;102848.56;4993367;28;19913;-60
2022/07/09 10:47:03;;;;;;;;;;;;;;;23.89;56.96;102830.38;4993014;28;19910;-59
2022/07/09 10:49:29;;;;;;;;;;;;;;;22.84;61.43;102829.31;4993181;28;20393;-59
2022/07/09 10:51:58;;;;;;;;;;;;;;;22.44;64.33;102834.59;4991763;28;19913;-60
2022/07/09 10:54:23;;;;;;;;;;;;;;;22.56;64.19;102845.47;4991789;28;19914;-60
2022/07/09 10:56:49;;;;;;;;;;;;;;;23.10;62.42;102842.94;4992836;28;20316;-60
2022/07/09 10:59:20;;;;;;;;;;;;;;;23.95;58.85;102848.03;4992873;28;19972;-60
2022/07/09 11:01:45;;;;;;;;;;;;;;;24.43;55.29;102850.09;4992765;28;19917;-59
2022/07/09 11:04:13;;;;;;;;;;;;;;;23.55;56.72;102857.91;4992649;28;19944;-58
2022/07/09 11:06:47;;;;;;;;;;;;;;;23.26;59.14;102849.06;4992894;28;19917;-59
2022/07/09 11:09:13;;;;;;;;;;;;;;;23.63;57.08;102857.41;4992872;28;20380;-59
2022/07/09 11:11:41;;;;;;;;;;;;;;;23.72;56.94;102850.47;4992586;28;19924;-60
2022/07/09 11:14:06;;;;;;;;;;;;;;;23.32;58.99;102858.63;4992600;28;19909;-59
2022/07/09 11:16:31;;;;;;;;;;;;;;;22.86;60.43;102865.19;4992920;28;20008;-58
2022/07/09 11:18:57;;;;;;;;;;;;;;;22.00;63.12;102853.47;4992432;28;20015;-59
2022/07/09 11:21:25;;;;;;;;;;;;;;;22.20;63.95;102863.03;4992624;28;19957;-60
2022/07/09 11:23:51;;;;;;;;;;;;;;;22.47;61.19;102873.09;4992560;28;19932;-60
2022/07/09 11:26:16;;;;;;;;;;;;;;;21.84;62.62;102863.44;4991460;28;20372;-60
2022/07/09 11:28:41;;;;;;;;;;;;;;;21.65;64.25;102869.97;4992593;28;19914;-59
2022/07/09 11:31:06;;;;;;;;;;;;;;;22.57;61.40;102863.44;4991495;28;20369;-59
2022/07/09 11:36:19;;;;;;;;;;;;;;;24.21;55.21;102876.00;4992981;28;19917;-60
2022/07/09 11:38:47;;;;;;;;;;;;;;;24.19;54.38;102865.25;4992453;28;19916;-60
2022/07/09 11:41:13;;;;;;;;;;;;;;;24.27;55.91;102867.44;4992472;28;19914;-60
2022/07/09 11:43:38;;;;;;;;;;;;;;;24.87;50.83;102875.78;4992518;28;19921;-59
2022/07/09 11:46:03;;;;;;;;;;;;;;;24.79;51.89;102870.06;4994399;28;19924;-60
2022/07/09 11:48:28;;;;;;;;;;;;;;;24.54;50.11;102859.16;4995274;28;19917;-59
2022/07/09 11:50:54;;;;;;;;;;;;;;;23.86;54.16;102874.75;4996525;28;20357;-61
2022/07/09 11:53:20;;;;;;;;;;;;;;;23.56;56.05;102862.34;4994934;28;19914;-60
2022/07/09 11:55:56;;;;;;;;;;;;;;;23.22;59.13;102858.38;4996160;28;19996;-61
2022/07/09 11:58:21;;;;;;;;;;;;;;;24.00;56.53;102857.59;4995242;28;19909;-61
2022/07/09 12:00:47;;;;;;;;;;;;;;;24.66;54.77;102849.28;4996082;28;19926;-60
2022/07/09 12:03:22;;;;;;;;;;;;;;;24.21;54.94;102852.47;4996096;28;19910;-60
2022/07/09 12:05:50;;;;;;;;;;;;;;;24.71;51.96;102840.81;4995863;28;19932;-61
2022/07/09 12:08:25;;;;;;;;;;;;;;;24.56;53.54;102847.34;4996130;28;19909;-58
2022/07/09 12:10:50;;;;;;;;;;;;;;;24.46;53.18;102852.56;4995819;28;20321;-61
2022/07/09 12:13:15;;;;;;;;;;;;;;;23.96;55.05;102847.06;4995813;28;19956;-60
2022/07/09 12:15:41;;;;;;;;;;;;;;;23.96;55.59;102858.75;4996013;28;19914;-61
2022/07/09 12:18:06;;;;;;;;;;;;;;;24.15;55.80;102850.19;4995829;28;19936;-60
2022/07/09 12:20:32;;;;;;;;;;;;;;;23.94;55.26;102843.59;4994627;28;19917;-60
2022/07/09 12:22:57;;;;;;;;;;;;;;;24.47;53.09;102840.75;4995719;28;19949;-59
2022/07/09 12:25:23;;;;;;;;;;;;;;;24.40;53.35;102848.47;4995906;28;19913;-60
2022/07/09 12:27:51;;;;;;;;;;;;;;;24.08;55.38;102848.03;4995693;28;19914;-61